createdAt,value
2018-02-17T00:00:07.184Z,-0.50
2018-02-17T00:02:33.574Z,-0.50
2018-02-17T00:05:00.739Z,-0.40
2018-02-17T00:07:27.888Z,-0.40
2018-02-17T00:09:54.357Z,-0.40
2018-02-17T00:12:21.525Z,-0.40
2018-02-17T00:14:47.976Z,-0.40
2018-02-17T00:17:14.361Z,-0.40
2018-02-17T00:19:40.771Z,-0.30
2018-02-17T00:22:07.232Z,-0.30
2018-02-17T00:24:33.667Z,-0.20
2018-02-17T00:27:00.145Z,-0.20
2018-02-17T00:29:26.593Z,-0.10
2018-02-17T00:31:52.989Z,-0.10
2018-02-17T00:34:19.383Z,-0.20
2018-02-17T00:36:45.791Z,-0.30
2018-02-17T00:39:12.956Z,-0.20
2018-02-17T00:41:40.171Z,-0.20
2018-02-17T00:44:06.597Z,-0.20
2018-02-17T00:46:33.025Z,-0.20
2018-02-17T00:49:00.217Z,-0.30
2018-02-17T00:51:26.641Z,-0.30
2018-02-17T00:53:53.805Z,-0.30
2018-02-17T00:56:20.361Z,-0.30
2018-02-17T00:58:47.493Z,-0.30
2018-02-17T01:01:13.893Z,-0.30
2018-02-17T01:03:40.309Z,-0.30
2018-02-17T01:06:06.727Z,-0.30
2018-02-17T01:08:33.104Z,-0.40
2018-02-17T01:11:00.294Z,-0.40
2018-02-17T01:13:27.402Z,-0.40
2018-02-17T01:15:54.662Z,-0.50
2018-02-17T01:18:21.082Z,-0.50
2018-02-17T01:20:47.512Z,-0.50
2018-02-17T01:23:13.935Z,-0.50
2018-02-17T01:25:40.444Z,-0.50
2018-02-17T01:28:06.832Z,-0.60
2018-02-17T01:30:33.335Z,-0.70
2018-02-17T01:32:59.769Z,-0.90
2018-02-17T01:35:26.208Z,-1.10
2018-02-17T01:37:53.353Z,-1.30
2018-02-17T01:40:20.557Z,-1.20
2018-02-17T01:42:46.980Z,-1.30
2018-02-17T01:45:14.176Z,-1.20
2018-02-17T01:47:40.586Z,-1.20
2018-02-17T01:50:19.343Z,-1.10
2018-02-17T01:52:45.796Z,-1.10
2018-02-17T01:55:12.256Z,-1.10
2018-02-17T01:57:38.665Z,-1.10
2018-02-17T02:00:05.864Z,-1.00
2018-02-17T02:02:32.257Z,-1.00
2018-02-17T02:04:58.730Z,-1.00
2018-02-17T02:07:25.906Z,-1.10
2018-02-17T02:09:53.053Z,-1.30
2018-02-17T02:12:20.420Z,-1.50
2018-02-17T02:14:47.617Z,-1.50
2018-02-17T02:17:14.025Z,-1.50
2018-02-17T02:19:40.548Z,-1.50
2018-02-17T02:22:06.929Z,-1.40
2018-02-17T02:24:33.310Z,-1.50
2018-02-17T02:26:59.747Z,-1.40
2018-02-17T02:29:26.176Z,-1.50
2018-02-17T02:31:53.325Z,-1.40
2018-02-17T02:34:19.772Z,-1.40
2018-02-17T02:36:46.159Z,-1.30
2018-02-17T02:39:12.590Z,-1.30
2018-02-17T02:41:39.017Z,-1.30
2018-02-17T02:44:06.201Z,-1.30
2018-02-17T02:46:32.573Z,-1.30
2018-02-17T02:48:58.953Z,-1.30
2018-02-17T02:51:25.445Z,-1.30
2018-02-17T02:53:51.864Z,-1.20
2018-02-17T02:56:18.216Z,-1.20
2018-02-17T02:58:45.392Z,-1.20
2018-02-17T03:01:12.592Z,-1.20
2018-02-17T03:03:38.993Z,-1.20
2018-02-17T03:06:06.189Z,-1.20
2018-02-17T03:08:32.632Z,-1.20
2018-02-17T03:10:59.079Z,-1.10
2018-02-17T03:13:25.488Z,-1.20
2018-02-17T03:15:51.949Z,-1.10
2018-02-17T03:18:19.134Z,-1.10
2018-02-17T03:20:45.604Z,-1.20
2018-02-17T03:23:12.009Z,-1.20
2018-02-17T03:25:39.184Z,-1.20
2018-02-17T03:28:06.368Z,-1.20
2018-02-17T03:30:32.749Z,-1.20
2018-02-17T03:32:59.162Z,-1.20
2018-02-17T03:35:25.588Z,-1.20
2018-02-17T03:37:52.773Z,-1.20
2018-02-17T03:40:19.148Z,-1.20
2018-02-17T03:42:45.556Z,-1.20
2018-02-17T03:45:12.006Z,-1.20
2018-02-17T03:47:38.456Z,-1.20
2018-02-17T03:50:04.887Z,-1.20
2018-02-17T03:52:32.028Z,-1.20
2018-02-17T03:54:58.526Z,-1.20
2018-02-17T03:57:24.931Z,-1.20
2018-02-17T03:59:52.092Z,-1.30
2018-02-17T04:02:19.192Z,-1.30
2018-02-17T04:04:45.640Z,-1.40
2018-02-17T04:07:12.092Z,-1.30
2018-02-17T04:09:38.528Z,-1.30
2018-02-17T04:12:04.880Z,-1.40
2018-02-17T04:14:31.304Z,-1.40
2018-02-17T04:16:57.721Z,-1.50
2018-02-17T04:19:24.920Z,-1.60
2018-02-17T04:21:51.294Z,-1.60
2018-02-17T04:24:17.710Z,-1.60
2018-02-17T04:26:44.850Z,-1.60
2018-02-17T04:29:11.305Z,-1.60
2018-02-17T04:31:38.501Z,-1.60
2018-02-17T04:34:04.947Z,-1.60
2018-02-17T04:36:31.304Z,-1.60
2018-02-17T04:38:57.726Z,-1.50
2018-02-17T04:41:26.154Z,-1.60
2018-02-17T04:43:58.644Z,-1.60
2018-02-17T04:46:31.090Z,-1.60
2018-02-17T04:48:58.287Z,-1.70
2018-02-17T04:54:28.699Z,-2.00
2018-02-17T04:56:57.889Z,-2.00
2018-02-17T04:59:39.221Z,-2.00
2018-02-17T05:05:15.951Z,-1.90
2018-02-17T05:07:43.064Z,-1.90
2018-02-17T05:10:09.491Z,-2.00
2018-02-17T05:12:35.961Z,-1.90
2018-02-17T05:15:08.646Z,-2.00
2018-02-17T05:20:58.761Z,-2.00
2018-02-17T05:23:29.069Z,-2.00
2018-02-17T05:25:57.457Z,-2.00
2018-02-17T05:28:23.976Z,-2.00
2018-02-17T05:30:51.539Z,-2.00
2018-02-17T05:33:18.860Z,-2.00
2018-02-17T05:35:48.106Z,-2.00
2018-02-17T05:38:14.502Z,-2.10
2018-02-17T05:40:44.655Z,-2.00
2018-02-17T05:43:11.876Z,-2.00
2018-02-17T05:45:42.338Z,-2.10
2018-02-17T05:48:09.736Z,-2.00
2018-02-17T05:50:36.908Z,-2.10
2018-02-17T05:53:04.083Z,-2.10
2018-02-17T05:55:30.501Z,-2.10
2018-02-17T05:57:57.701Z,-2.10
2018-02-17T06:00:24.174Z,-2.10
2018-02-17T06:02:50.710Z,-2.10
2018-02-17T06:05:17.153Z,-2.10
2018-02-17T06:07:43.704Z,-2.10
2018-02-17T06:10:10.247Z,-2.10
2018-02-17T06:12:36.664Z,-2.10
2018-02-17T06:15:03.861Z,-2.10
2018-02-17T06:17:30.286Z,-2.20
2018-02-17T06:19:56.766Z,-2.20
2018-02-17T06:22:23.165Z,-2.20
2018-02-17T06:24:50.387Z,-2.30
2018-02-17T06:27:16.788Z,-2.30
2018-02-17T06:29:43.333Z,-2.30
2018-02-17T06:32:09.762Z,-2.40
2018-02-17T06:34:36.944Z,-2.40
2018-02-17T06:37:04.137Z,-2.40
2018-02-17T06:39:30.580Z,-2.40
2018-02-17T06:41:57.001Z,-2.40
2018-02-17T06:44:23.492Z,-2.40
2018-02-17T06:46:49.887Z,-2.40
2018-02-17T06:49:16.392Z,-2.30
2018-02-17T06:51:42.775Z,-2.30
2018-02-17T06:54:10.019Z,-2.20
2018-02-17T06:56:36.543Z,-2.30
2018-02-17T06:59:03.247Z,-2.20
2018-02-17T07:01:30.114Z,-2.10
2018-02-17T07:03:57.318Z,-2.10
2018-02-17T07:06:23.844Z,-2.10
2018-02-17T07:08:50.300Z,-2.10
2018-02-17T07:11:16.743Z,-2.00
2018-02-17T07:13:43.151Z,-2.00
2018-02-17T07:16:10.574Z,-2.00
2018-02-17T07:18:36.984Z,-1.90
2018-02-17T07:21:03.540Z,-1.80
2018-02-17T07:23:30.687Z,-1.70
2018-02-17T07:25:57.650Z,-1.70
2018-02-17T07:28:24.851Z,-1.60
2018-02-17T07:30:51.266Z,-1.60
2018-02-17T07:33:18.463Z,-1.50
2018-02-17T07:35:45.164Z,-1.50
2018-02-17T07:38:11.535Z,-1.40
2018-02-17T07:40:39.055Z,-1.30
2018-02-17T07:43:05.485Z,-1.30
2018-02-17T07:45:31.899Z,-1.20
2018-02-17T07:47:58.452Z,-1.10
2018-02-17T07:50:25.659Z,-0.90
2018-02-17T07:52:52.204Z,-0.90
2018-02-17T07:55:18.709Z,-0.90
2018-02-17T07:57:46.201Z,-0.80
2018-02-17T08:00:12.659Z,-0.80
2018-02-17T08:02:39.133Z,-0.80
2018-02-17T08:05:05.613Z,-0.70
2018-02-17T08:07:32.789Z,-0.40
2018-02-17T08:09:59.963Z,-0.30
2018-02-17T08:12:26.424Z,-0.30
2018-02-17T08:14:52.845Z,-0.20
2018-02-17T08:17:19.304Z,0.00
2018-02-17T08:19:45.941Z,0.10
2018-02-17T08:22:13.133Z,0.10
2018-02-17T08:24:39.566Z,0.10
2018-02-17T08:27:06.036Z,0.20
2018-02-17T08:29:32.712Z,0.10
2018-02-17T08:32:01.493Z,0.20
2018-02-17T08:34:27.911Z,0.20
2018-02-17T08:36:54.366Z,0.30
2018-02-17T08:39:20.887Z,0.50
2018-02-17T08:41:47.472Z,0.40
2018-02-17T08:44:14.081Z,0.40
2018-02-17T08:46:40.612Z,0.50
2018-02-17T08:49:07.797Z,0.40
2018-02-17T08:51:34.621Z,0.40
2018-02-17T08:54:01.951Z,0.60
2018-02-17T08:56:28.478Z,0.60
2018-02-17T08:58:55.681Z,0.60
2018-02-17T09:01:22.129Z,0.60
2018-02-17T09:03:48.663Z,0.70
2018-02-17T09:06:15.138Z,0.90
2018-02-17T09:08:41.560Z,1.10
2018-02-17T09:11:07.980Z,1.20
2018-02-17T09:13:34.365Z,1.40
2018-02-17T09:16:00.866Z,1.30
2018-02-17T09:18:27.277Z,1.40
2018-02-17T10:36:50.043Z,1.70
2018-02-17T10:39:16.473Z,3.50
2018-02-17T10:41:43.626Z,3.90
2018-02-17T10:44:10.008Z,3.80
2018-02-17T10:46:36.390Z,4.10
2018-02-17T10:49:02.783Z,4.30
2018-02-17T10:55:00.024Z,4.60
2018-02-17T10:57:26.488Z,4.80
2018-02-17T10:59:53.861Z,4.70
2018-02-17T11:02:20.289Z,4.80
2018-02-17T11:04:46.816Z,4.90
2018-02-17T11:07:13.168Z,5.00
2018-02-17T11:09:40.396Z,5.30
2018-02-17T11:12:06.831Z,5.20
2018-02-17T11:14:33.270Z,5.30
2018-02-17T11:16:59.705Z,5.50
2018-02-17T11:19:26.084Z,5.60
2018-02-17T11:21:52.619Z,5.50
2018-02-17T11:24:18.968Z,5.60
2018-02-17T11:26:45.384Z,5.70
2018-02-17T11:29:11.824Z,5.80
2018-02-17T11:31:38.960Z,5.80
2018-02-17T11:34:05.362Z,5.80
2018-02-17T11:36:31.756Z,5.80
2018-02-17T11:38:58.132Z,5.70
2018-02-17T11:41:24.520Z,5.80
2018-02-17T11:43:51.121Z,6.00
2018-02-17T11:46:17.757Z,6.10
2018-02-17T11:48:45.885Z,6.30
2018-02-17T11:51:12.284Z,6.20
2018-02-17T11:53:39.400Z,6.20
2018-02-17T11:56:05.895Z,6.10
2018-02-17T11:58:33.029Z,6.30
2018-02-17T12:01:00.165Z,6.50
2018-02-17T12:03:26.600Z,6.40
2018-02-17T12:05:53.746Z,6.60
2018-02-17T12:08:21.116Z,6.80
2018-02-17T12:10:47.497Z,6.80
2018-02-17T12:13:13.900Z,6.90
2018-02-17T12:15:41.047Z,7.00
2018-02-17T12:18:07.373Z,7.00
2018-02-17T12:20:34.991Z,7.20
2018-02-17T12:23:02.116Z,7.40
2018-02-17T12:25:28.519Z,7.40
2018-02-17T12:27:54.909Z,7.20
2018-02-17T12:30:21.300Z,7.20
2018-02-17T12:32:48.403Z,7.30
2018-02-17T12:35:14.747Z,7.30
2018-02-17T12:37:41.068Z,7.30
2018-02-17T12:40:07.422Z,7.20
2018-02-17T12:42:33.765Z,7.50
2018-02-17T12:45:00.110Z,7.80
2018-02-17T12:47:26.584Z,8.40
2018-02-17T12:49:53.017Z,8.50
2018-02-17T12:52:20.046Z,10.00
2018-02-17T12:54:46.421Z,9.90
2018-02-17T12:57:12.724Z,10.70
2018-02-17T12:59:39.772Z,10.20
2018-02-17T13:02:06.932Z,9.60
2018-02-17T13:04:33.370Z,9.60
2018-02-17T13:06:59.669Z,9.20
2018-02-17T13:09:26.160Z,9.00
2018-02-17T13:11:52.494Z,8.90
2018-02-17T13:14:18.831Z,9.00
2018-02-17T13:16:45.245Z,9.20
2018-02-17T13:19:11.573Z,9.40
2018-02-17T13:21:38.674Z,9.50
2018-02-17T13:24:04.996Z,9.40
2018-02-17T13:26:33.317Z,9.60
2018-02-17T13:28:59.785Z,9.80
2018-02-17T13:31:27.013Z,10.00
2018-02-17T13:33:53.378Z,10.00
2018-02-17T13:36:19.810Z,9.40
2018-02-17T13:38:46.111Z,9.40
2018-02-17T13:41:13.163Z,10.90
2018-02-17T13:43:39.438Z,10.90
2018-02-17T13:46:05.843Z,11.30
2018-02-17T13:48:32.376Z,11.00
2018-02-17T13:50:59.470Z,10.50
2018-02-17T13:53:26.508Z,10.10
2018-02-17T13:55:52.875Z,10.10
2018-02-17T13:58:19.157Z,9.50
2018-02-17T14:00:45.419Z,9.40
2018-02-17T14:03:11.679Z,8.80
2018-02-17T14:05:37.987Z,8.80
2018-02-17T14:08:04.244Z,8.50
2018-02-17T14:10:30.512Z,8.30
2018-02-17T14:12:57.086Z,8.10
2018-02-17T14:15:23.452Z,8.10
2018-02-17T14:17:50.437Z,8.10
2018-02-17T14:20:16.721Z,8.10
2018-02-17T14:22:42.976Z,8.00
2018-02-17T14:25:09.233Z,8.10
2018-02-17T14:27:36.440Z,8.10
2018-02-17T14:30:02.844Z,8.10
2018-02-17T14:32:29.381Z,8.10
2018-02-17T14:34:55.736Z,8.20
2018-02-17T14:37:22.764Z,8.20
2018-02-17T14:39:49.071Z,8.20
2018-02-17T14:42:15.444Z,8.30
2018-02-17T14:44:41.783Z,8.50
2018-02-17T14:47:08.152Z,8.60
2018-02-17T14:49:34.543Z,8.90
2018-02-17T14:52:00.940Z,8.80
2018-02-17T14:54:27.377Z,8.90
2018-02-17T14:56:53.697Z,8.90
2018-02-17T14:59:20.011Z,9.00
2018-02-17T15:01:46.300Z,9.00
2018-02-17T15:04:12.641Z,9.10
2018-02-17T15:06:38.872Z,9.10
2018-02-17T15:09:05.226Z,9.00
2018-02-17T15:11:32.417Z,8.90
2018-02-17T15:13:58.814Z,8.70
2018-02-17T15:16:25.168Z,8.40
2018-02-17T15:18:51.528Z,8.40
2018-02-17T15:21:17.853Z,8.40
2018-02-17T15:23:44.264Z,8.00
2018-02-17T15:26:10.607Z,8.10
2018-02-17T15:28:37.097Z,8.00
2018-02-17T15:31:03.472Z,7.60
2018-02-17T15:33:33.559Z,7.40
2018-02-17T15:35:59.957Z,7.20
2018-02-17T15:38:26.387Z,7.00
2018-02-17T15:40:53.488Z,6.80
2018-02-17T15:43:19.819Z,6.70
2018-02-17T15:45:46.136Z,6.70
2018-02-17T15:48:13.548Z,6.50
2018-02-17T15:50:40.600Z,6.50
2018-02-17T15:53:06.919Z,6.50
2018-02-17T15:55:33.318Z,6.50
2018-02-17T15:58:00.397Z,6.50
2018-02-17T16:00:26.678Z,6.50
2018-02-17T16:02:53.028Z,6.50
2018-02-17T16:05:19.393Z,6.60
2018-02-17T16:07:45.766Z,6.60
2018-02-17T16:10:12.141Z,6.30
2018-02-17T16:12:38.516Z,6.20
2018-02-17T16:15:04.835Z,6.00
2018-02-17T16:17:31.168Z,6.00
2018-02-17T16:19:57.513Z,5.80
2018-02-17T16:22:23.912Z,5.70
2018-02-17T16:24:50.257Z,5.70
2018-02-17T16:27:16.585Z,5.70
2018-02-17T16:29:43.064Z,5.70
2018-02-17T16:32:09.564Z,5.80
2018-02-17T16:34:35.932Z,5.70
2018-02-17T16:37:02.306Z,5.60
2018-02-17T16:39:29.364Z,5.60
2018-02-17T16:41:55.611Z,5.50
2018-02-17T16:44:22.926Z,5.60
2018-02-17T16:46:49.231Z,5.50
2018-02-17T16:49:16.242Z,4.90
2018-02-17T16:51:42.496Z,4.90
2018-02-17T16:54:08.813Z,4.70
2018-02-17T16:56:35.089Z,4.80
2018-02-17T16:59:02.479Z,4.80
2018-02-17T17:01:29.495Z,4.80
2018-02-17T17:03:55.839Z,4.80
2018-02-17T17:06:22.104Z,4.80
2018-02-17T17:08:48.440Z,4.70
2018-02-17T17:11:14.683Z,4.60
2018-02-17T17:13:40.996Z,4.60
2018-02-17T17:16:07.366Z,4.60
2018-02-17T17:18:33.652Z,4.70
2018-02-17T17:20:59.887Z,4.60
2018-02-17T17:23:26.207Z,4.60
2018-02-17T17:25:52.453Z,4.70
2018-02-17T17:28:18.702Z,4.90
2018-02-17T17:30:44.948Z,4.80
2018-02-17T17:33:11.223Z,4.60
2018-02-17T17:35:38.200Z,4.30
2018-02-17T17:38:04.447Z,4.30
2018-02-17T17:40:30.693Z,4.40
2018-02-17T17:42:56.980Z,4.50
2018-02-17T17:45:23.253Z,4.60
2018-02-17T17:47:50.250Z,4.70
2018-02-17T17:50:16.527Z,4.60
2018-02-17T17:52:42.773Z,4.60
2018-02-17T17:55:09.014Z,4.70
2018-02-17T17:57:35.252Z,4.60
2018-02-17T18:00:01.591Z,4.50
2018-02-17T18:02:28.630Z,4.50
2018-02-17T18:04:54.963Z,4.50
2018-02-17T18:07:21.224Z,4.50
2018-02-17T18:09:47.458Z,4.50
2018-02-17T18:12:13.702Z,4.40
2018-02-17T18:14:39.916Z,4.40
2018-02-17T18:17:06.979Z,4.40
2018-02-17T18:19:33.244Z,4.40
2018-02-17T18:21:59.502Z,4.30
2018-02-17T18:24:25.792Z,4.20
2018-02-17T18:26:52.827Z,3.90
2018-02-17T18:29:19.096Z,3.90
2018-02-17T18:31:45.362Z,3.90
2018-02-17T18:34:11.602Z,3.80
2018-02-17T18:36:37.864Z,3.80
2018-02-17T18:39:04.126Z,3.80
2018-02-17T18:41:30.375Z,3.80
2018-02-17T18:43:56.935Z,3.80
2018-02-17T18:46:23.210Z,3.80
2018-02-17T18:48:50.191Z,3.80
2018-02-17T18:51:16.418Z,3.80
2018-02-17T18:53:43.433Z,3.70
2018-02-17T18:56:09.713Z,3.70
2018-02-17T18:58:36.732Z,3.80
2018-02-17T19:01:03.089Z,3.80
2018-02-17T19:03:29.512Z,3.80
2018-02-17T19:05:55.801Z,3.80
2018-02-17T19:08:22.129Z,3.80
2018-02-17T19:10:48.485Z,3.80
2018-02-17T19:13:14.747Z,3.70
2018-02-17T19:15:41.723Z,3.60
2018-02-17T19:18:09.165Z,3.60
2018-02-17T19:20:36.113Z,3.50
2018-02-17T19:23:02.456Z,3.60
2018-02-17T19:25:28.888Z,3.60
2018-02-17T19:27:56.593Z,3.60
2018-02-17T19:30:23.711Z,3.50
2018-02-17T19:32:50.195Z,3.50
2018-02-17T19:35:16.565Z,3.40
2018-02-17T19:37:43.048Z,3.40
2018-02-17T19:40:09.385Z,3.40
2018-02-17T19:42:35.740Z,3.40
2018-02-17T19:45:02.120Z,3.40
2018-02-17T19:47:29.212Z,3.40
2018-02-17T19:49:56.320Z,3.40
2018-02-17T19:52:22.712Z,3.40
2018-02-17T19:54:49.838Z,3.50
2018-02-17T19:57:16.225Z,3.50
2018-02-17T19:59:42.553Z,3.50
2018-02-17T20:02:09.583Z,3.20
2018-02-17T20:04:35.906Z,3.20
2018-02-17T20:07:02.202Z,3.20
2018-02-17T20:09:28.478Z,3.30
2018-02-17T20:11:54.787Z,3.40
2018-02-17T20:14:21.086Z,3.20
2018-02-17T20:16:47.351Z,3.10
2018-02-17T20:19:13.583Z,3.10
2018-02-17T20:21:39.993Z,3.20
2018-02-17T20:24:06.282Z,3.20
2018-02-17T20:26:32.647Z,3.20
2018-02-17T20:28:58.959Z,3.20
2018-02-17T20:31:25.271Z,3.10
2018-02-17T20:33:51.561Z,3.10
2018-02-17T20:36:17.857Z,3.10
2018-02-17T20:38:44.137Z,3.00
2018-02-17T20:41:10.402Z,2.90
2018-02-17T20:43:36.649Z,2.90
2018-02-17T20:46:03.117Z,3.00
2018-02-17T20:48:30.177Z,2.90
2018-02-17T20:50:56.600Z,2.90
2018-02-17T20:53:22.941Z,2.80
2018-02-17T20:55:50.024Z,2.70
2018-02-17T20:58:16.350Z,2.60
2018-02-17T21:00:42.680Z,2.60
2018-02-17T21:03:09.029Z,2.60
2018-02-17T21:05:35.383Z,2.60
2018-02-17T21:08:01.692Z,2.60
2018-02-17T21:10:28.049Z,2.60
2018-02-17T21:12:54.405Z,2.50
2018-02-17T21:15:22.581Z,2.60
2018-02-17T21:17:48.920Z,2.50
2018-02-17T21:20:17.203Z,2.40
2018-02-17T21:22:44.081Z,2.60
2018-02-17T21:25:10.489Z,2.50
2018-02-17T21:27:36.874Z,2.50
2018-02-17T21:30:03.280Z,2.40
2018-02-17T21:32:30.372Z,2.60
2018-02-17T21:34:56.799Z,2.60
2018-02-17T21:37:23.102Z,2.60
2018-02-17T21:39:49.389Z,2.60
2018-02-17T21:42:17.665Z,2.60
2018-02-17T21:44:44.703Z,2.40
2018-02-17T21:47:10.975Z,2.40
2018-02-17T21:49:37.213Z,2.20
2018-02-17T21:52:03.552Z,1.90
2018-02-17T21:54:30.580Z,1.40
2018-02-17T21:56:57.091Z,1.40
2018-02-17T21:59:24.178Z,1.20
2018-02-17T22:01:50.574Z,1.20
2018-02-17T22:04:17.035Z,1.30
2018-02-17T22:06:43.441Z,1.20
2018-02-17T22:09:10.529Z,1.30
2018-02-17T22:11:37.704Z,1.30
2018-02-17T22:14:04.087Z,1.30
2018-02-17T22:16:30.412Z,1.20
2018-02-17T22:18:56.735Z,1.20
2018-02-17T22:21:23.151Z,1.10
2018-02-17T22:23:49.480Z,1.10
2018-02-17T22:26:15.891Z,1.00
2018-02-17T22:28:42.198Z,0.80
2018-02-17T22:31:09.327Z,0.50
2018-02-17T22:33:35.720Z,0.50
2018-02-17T22:36:02.072Z,0.40
2018-02-17T22:38:28.529Z,0.40
2018-02-17T22:40:54.866Z,0.50
2018-02-17T22:43:21.282Z,0.40
2018-02-17T22:45:48.453Z,0.50
2018-02-17T22:48:15.584Z,0.50
2018-02-17T22:50:42.013Z,0.40
2018-02-17T22:53:08.321Z,0.50
2018-02-17T22:55:37.573Z,0.30
2018-02-17T22:58:03.880Z,0.30
2018-02-17T23:00:31.060Z,0.30
2018-02-17T23:02:58.241Z,0.20
2018-02-17T23:05:24.664Z,0.20
2018-02-17T23:07:51.959Z,0.20
2018-02-17T23:10:18.341Z,0.10
2018-02-17T23:12:44.729Z,0.00
2018-02-17T23:15:11.073Z,-0.30
2018-02-17T23:17:37.385Z,-0.50
2018-02-17T23:20:03.748Z,-0.50
2018-02-17T23:22:30.120Z,-0.40
2018-02-17T23:24:57.321Z,-0.30
2018-02-17T23:27:23.745Z,-0.30
2018-02-17T23:29:50.119Z,-0.30
2018-02-17T23:32:22.072Z,-0.30
2018-02-17T23:34:48.535Z,-0.10
2018-02-17T23:37:15.732Z,0.00
2018-02-17T23:39:42.781Z,0.00
2018-02-17T23:42:09.133Z,0.00
2018-02-17T23:44:36.420Z,0.10
2018-02-17T23:47:03.466Z,0.10
2018-02-17T23:49:30.470Z,0.10
2018-02-17T23:51:56.794Z,0.10
2018-02-17T23:54:23.175Z,0.10
2018-02-17T23:56:49.431Z,-0.10
2018-02-17T23:59:15.829Z,-0.40
